sensor_id;sensor_type;location;lat;lon;timestamp;pressure;altitude;pressure_sealevel;temperature;humidity
77161;BME280;66135;0.000;0.000;2023-05-10T00:01:45;100732.13;;;19.74;68.03
77161;BME280;66135;0.000;0.000;2023-05-10T00:04:11;100732.50;;;19.71;68.01
77161;BME280;66135;0.000;0.000;2023-05-10T00:06:36;100732.50;;;19.71;68.13
77161;BME280;66135;0.000;0.000;2023-05-10T00:09:01;100734.16;;;19.72;68.13
77161;BME280;66135;0.000;0.000;2023-05-10T00:11:28;100727.88;;;19.72;67.94
77161;BME280;66135;0.000;0.000;2023-05-10T00:13:53;100732.50;;;19.71;67.96
77161;BME280;66135;0.000;0.000;2023-05-10T00:16:18;100729.78;;;19.71;67.89
77161;BME280;66135;0.000;0.000;2023-05-10T00:18:44;100730.59;;;19.72;67.95
77161;BME280;66135;0.000;0.000;2023-05-10T00:21:09;100721.63;;;19.71;67.87
77161;BME280;66135;0.000;0.000;2023-05-10T00:23:34;100734.38;;;19.71;67.98
77161;BME280;66135;0.000;0.000;2023-05-10T00:26:00;100730.59;;;19.72;67.97
77161;BME280;66135;0.000;0.000;2023-05-10T00:28:27;100728.94;;;19.71;67.90
77161;BME280;66135;0.000;0.000;2023-05-10T00:30:52;100733.69;;;19.69;67.96
77161;BME280;66135;0.000;0.000;2023-05-10T00:33:18;100729.31;;;19.68;67.90
77161;BME280;66135;0.000;0.000;2023-05-10T00:35:43;100733.91;;;19.67;68.01
77161;BME280;66135;0.000;0.000;2023-05-10T00:38:08;100733.03;;;19.67;67.99
77161;BME280;66135;0.000;0.000;2023-05-10T00:40:35;100738.47;;;19.67;67.92
77161;BME280;66135;0.000;0.000;2023-05-10T00:43:02;100728.47;;;19.67;67.96
77161;BME280;66135;0.000;0.000;2023-05-10T00:45:29;100731.19;;;19.67;67.77
77161;BME280;66135;0.000;0.000;2023-05-10T00:47:55;100724.88;;;19.67;67.91
77161;BME280;66135;0.000;0.000;2023-05-10T00:50:23;100719.44;;;19.67;67.82
77161;BME280;66135;0.000;0.000;2023-05-10T00:52:49;100721.16;;;19.68;67.78
77161;BME280;66135;0.000;0.000;2023-05-10T00:55:15;100718.44;;;19.68;67.76
77161;BME280;66135;0.000;0.000;2023-05-10T00:57:41;100729.31;;;19.68;67.78
77161;BME280;66135;0.000;0.000;2023-05-10T01:00:07;100725.94;;;19.66;67.78
77161;BME280;66135;0.000;0.000;2023-05-10T01:02:33;100719.44;;;19.67;67.83
77161;BME280;66135;0.000;0.000;2023-05-10T01:04:59;100719.44;;;19.67;67.75
77161;BME280;66135;0.000;0.000;2023-05-10T01:07:25;100730.31;;;19.67;67.61
77161;BME280;66135;0.000;0.000;2023-05-10T01:09:50;100723.22;;;19.66;67.61
77161;BME280;66135;0.000;0.000;2023-05-10T01:12:16;100733.91;;;19.67;67.64
77161;BME280;66135;0.000;0.000;2023-05-10T01:14:41;100728.66;;;19.66;67.73
77161;BME280;66135;0.000;0.000;2023-05-10T01:17:08;100733.22;;;19.65;67.80
77161;BME280;66135;0.000;0.000;2023-05-10T01:19:35;100725.09;;;19.65;67.65
77161;BME280;66135;0.000;0.000;2023-05-10T01:33:21;100720.69;;;19.64;67.56
77161;BME280;66135;0.000;0.000;2023-05-10T01:36:05;100718.16;;;19.63;67.53
77161;BME280;66135;0.000;0.000;2023-05-10T01:39:02;100709.34;;;19.61;67.61
77161;BME280;66135;0.000;0.000;2023-05-10T01:41:42;100716.47;;;19.62;67.60
77161;BME280;66135;0.000;0.000;2023-05-10T01:44:42;100716.25;;;19.63;67.59
77161;BME280;66135;0.000;0.000;2023-05-10T01:47:15;100714.78;;;19.61;67.56
77161;BME280;66135;0.000;0.000;2023-05-10T01:49:54;100715.63;;;19.61;67.67
77161;BME280;66135;0.000;0.000;2023-05-10T01:52:26;100716.47;;;19.62;67.37
77161;BME280;66135;0.000;0.000;2023-05-10T01:55:00;100716.47;;;19.62;67.64
77161;BME280;66135;0.000;0.000;2023-05-10T01:57:33;100717.50;;;19.61;67.57
77161;BME280;66135;0.000;0.000;2023-05-10T02:00:01;100726.66;;;19.60;67.45
77161;BME280;66135;0.000;0.000;2023-05-10T02:02:37;100720.41;;;19.59;67.53
77161;BME280;66135;0.000;0.000;2023-05-10T02:05:05;100720.41;;;19.59;67.64
77161;BME280;66135;0.000;0.000;2023-05-10T02:07:35;100723.13;;;19.59;67.55
77161;BME280;66135;0.000;0.000;2023-05-10T02:10:02;100730.44;;;19.59;67.48
77161;BME280;66135;0.000;0.000;2023-05-10T02:12:40;100730.44;;;19.59;67.59
77161;BME280;66135;0.000;0.000;2023-05-10T02:15:07;100729.56;;;19.58;67.62
77161;BME280;66135;0.000;0.000;2023-05-10T02:17:35;100736.91;;;19.58;67.54
77161;BME280;66135;0.000;0.000;2023-05-10T02:20:11;100739.63;;;19.58;67.51
77161;BME280;66135;0.000;0.000;2023-05-10T02:22:38;100740.63;;;19.57;67.49
77161;BME280;66135;0.000;0.000;2023-05-10T02:25:06;100746.06;;;19.57;67.43
77161;BME280;66135;0.000;0.000;2023-05-10T02:27:33;100747.94;;;19.56;67.52
77161;BME280;66135;0.000;0.000;2023-05-10T02:30:00;100751.69;;;19.55;67.57
77161;BME280;66135;0.000;0.000;2023-05-10T02:32:27;100754.22;;;19.57;67.55
77161;BME280;66135;0.000;0.000;2023-05-10T02:34:52;100746.91;;;19.57;67.51
77161;BME280;66135;0.000;0.000;2023-05-10T02:37:20;100748.59;;;19.58;67.52
77161;BME280;66135;0.000;0.000;2023-05-10T02:39:50;100754.22;;;19.57;67.41
77161;BME280;66135;0.000;0.000;2023-05-10T02:42:18;100757.97;;;19.56;67.48
77161;BME280;66135;0.000;0.000;2023-05-10T02:44:48;100752.56;;;19.56;67.40
77161;BME280;66135;0.000;0.000;2023-05-10T02:47:16;100752.75;;;19.54;67.39
77161;BME280;66135;0.000;0.000;2023-05-10T02:49:42;100756.28;;;19.55;67.46
77161;BME280;66135;0.000;0.000;2023-05-10T02:52:28;100755.28;;;19.56;67.29
77161;BME280;66135;0.000;0.000;2023-05-10T02:54:56;100757.13;;;19.55;67.29
77161;BME280;66135;0.000;0.000;2023-05-10T02:57:26;100763.59;;;19.54;67.45
77161;BME280;66135;0.000;0.000;2023-05-10T02:59:53;100757.31;;;19.54;67.23
77161;BME280;66135;0.000;0.000;2023-05-10T03:02:18;100762.75;;;19.54;67.55
77161;BME280;66135;0.000;0.000;2023-05-10T03:04:45;100760.69;;;19.56;67.41
77161;BME280;66135;0.000;0.000;2023-05-10T03:07:10;100756.47;;;19.53;67.27
77161;BME280;66135;0.000;0.000;2023-05-10T03:09:36;100754.59;;;19.54;67.22
77161;BME280;66135;0.000;0.000;2023-05-10T03:14:55;100747.47;;;19.53;67.14
77161;BME280;66135;0.000;0.000;2023-05-10T03:17:27;100756.66;;;19.52;67.45
77161;BME280;66135;0.000;0.000;2023-05-10T03:20:06;100751.22;;;19.52;67.37
77161;BME280;66135;0.000;0.000;2023-05-10T03:22:39;100756.66;;;19.52;67.37
77161;BME280;66135;0.000;0.000;2023-05-10T03:25:07;100760.22;;;19.52;67.30
77161;BME280;66135;0.000;0.000;2023-05-10T03:27:41;100761.25;;;19.51;67.29
77161;BME280;66135;0.000;0.000;2023-05-10T03:30:10;100764.16;;;19.50;67.32
77161;BME280;66135;0.000;0.000;2023-05-10T03:32:36;100763.13;;;19.51;67.30
77161;BME280;66135;0.000;0.000;2023-05-10T03:35:09;100764.81;;;19.52;67.40
77161;BME280;66135;0.000;0.000;2023-05-10T03:37:35;100769.59;;;19.50;67.36
77161;BME280;66135;0.000;0.000;2023-05-10T03:40:02;100765.84;;;19.51;67.33
77161;BME280;66135;0.000;0.000;2023-05-10T03:42:27;100764.34;;;19.48;67.22
77161;BME280;66135;0.000;0.000;2023-05-10T03:44:52;100774.00;;;19.51;67.37
77161;BME280;66135;0.000;0.000;2023-05-10T03:47:18;100783.16;;;19.50;67.22
77161;BME280;66135;0.000;0.000;2023-05-10T03:49:43;100780.44;;;19.50;67.24
77161;BME280;66135;0.000;0.000;2023-05-10T03:52:08;100772.28;;;19.50;67.29
77161;BME280;66135;0.000;0.000;2023-05-10T03:54:34;100782.50;;;19.48;67.13
77161;BME280;66135;0.000;0.000;2023-05-10T03:56:59;100785.03;;;19.49;67.22
77161;BME280;66135;0.000;0.000;2023-05-10T03:59:27;100787.13;;;19.47;67.27
77161;BME280;66135;0.000;0.000;2023-05-10T04:01:52;100778.97;;;19.47;67.17
77161;BME280;66135;0.000;0.000;2023-05-10T04:04:17;100786.25;;;19.47;67.29
77161;BME280;66135;0.000;0.000;2023-05-10T04:06:44;100790.00;;;19.46;67.23
77161;BME280;66135;0.000;0.000;2023-05-10T04:09:10;100779.97;;;19.46;67.09
77161;BME280;66135;0.000;0.000;2023-05-10T04:11:36;100784.75;;;19.44;67.11
77161;BME280;66135;0.000;0.000;2023-05-10T04:14:01;100790.56;;;19.41;67.16
77161;BME280;66135;0.000;0.000;2023-05-10T04:16:27;100795.13;;;19.41;67.31
77161;BME280;66135;0.000;0.000;2023-05-10T04:18:52;100789.34;;;19.44;67.46
77161;BME280;66135;0.000;0.000;2023-05-10T04:21:17;100792.06;;;19.44;67.36
77161;BME280;66135;0.000;0.000;2023-05-10T04:23:43;100792.91;;;19.44;67.11
77161;BME280;66135;0.000;0.000;2023-05-10T04:26:08;100791.88;;;19.45;67.30
77161;BME280;66135;0.000;0.000;2023-05-10T04:28:34;100788.13;;;19.46;67.43
77161;BME280;66135;0.000;0.000;2023-05-10T04:31:07;100795.75;;;19.51;67.97
77161;BME280;66135;0.000;0.000;2023-05-10T04:33:33;100790.13;;;19.52;67.95
77161;BME280;66135;0.000;0.000;2023-05-10T04:35:59;100791.31;;;19.50;68.00
77161;BME280;66135;0.000;0.000;2023-05-10T04:38:24;100794.22;;;19.48;68.18
77161;BME280;66135;0.000;0.000;2023-05-10T04:40:50;100804.25;;;19.48;68.13
77161;BME280;66135;0.000;0.000;2023-05-10T04:43:15;100790.00;;;19.46;68.55
77161;BME280;66135;0.000;0.000;2023-05-10T04:45:41;100794.78;;;19.44;68.26
77161;BME280;66135;0.000;0.000;2023-05-10T04:48:06;100805.66;;;19.44;68.05
77161;BME280;66135;0.000;0.000;2023-05-10T04:50:32;100803.94;;;19.43;68.24
77161;BME280;66135;0.000;0.000;2023-05-10T04:52:58;100796.84;;;19.42;68.00
77161;BME280;66135;0.000;0.000;2023-05-10T04:55:23;100799.56;;;19.42;68.03
77161;BME280;66135;0.000;0.000;2023-05-10T04:57:49;100796.84;;;19.42;68.07
77161;BME280;66135;0.000;0.000;2023-05-10T05:00:15;100799.75;;;19.40;67.83
77161;BME280;66135;0.000;0.000;2023-05-10T05:02:43;100804.31;;;19.40;68.00
77161;BME280;66135;0.000;0.000;2023-05-10T05:05:12;100815.19;;;19.40;67.96
77161;BME280;66135;0.000;0.000;2023-05-10T05:07:37;100805.19;;;19.40;68.16
77161;BME280;66135;0.000;0.000;2023-05-10T05:10:05;100812.47;;;19.40;68.00
77161;BME280;66135;0.000;0.000;2023-05-10T05:12:31;100804.31;;;19.40;67.75
77161;BME280;66135;0.000;0.000;2023-05-10T05:14:56;100813.50;;;19.39;67.94
77161;BME280;66135;0.000;0.000;2023-05-10T05:17:22;100807.22;;;19.38;67.99
77161;BME280;66135;0.000;0.000;2023-05-10T05:19:47;100810.13;;;19.37;67.91
77161;BME280;66135;0.000;0.000;2023-05-10T05:22:13;100813.88;;;19.36;67.91
77161;BME280;66135;0.000;0.000;2023-05-10T05:24:38;100819.28;;;19.36;67.91
77161;BME280;66135;0.000;0.000;2023-05-10T05:27:04;100818.47;;;19.35;68.00
77161;BME280;66135;0.000;0.000;2023-05-10T05:29:29;100828.47;;;19.35;68.01
77161;BME280;66135;0.000;0.000;2023-05-10T05:31:54;100832.88;;;19.36;67.85
77161;BME280;66135;0.000;0.000;2023-05-10T05:34:20;100824.72;;;19.36;67.95
77161;BME280;66135;0.000;0.000;2023-05-10T05:36:46;100833.06;;;19.34;67.94
77161;BME280;66135;0.000;0.000;2023-05-10T05:39:12;100833.91;;;19.35;67.72
77161;BME280;66135;0.000;0.000;2023-05-10T05:41:37;100832.06;;;19.35;67.92
77161;BME280;66135;0.000;0.000;2023-05-10T05:44:02;100841.03;;;19.36;67.69
77161;BME280;66135;0.000;0.000;2023-05-10T05:46:28;100839.16;;;19.36;67.90
77161;BME280;66135;0.000;0.000;2023-05-10T05:48:53;100838.97;;;19.38;67.90
77161;BME280;66135;0.000;0.000;2023-05-10T05:51:19;100837.94;;;19.39;67.84
77161;BME280;66135;0.000;0.000;2023-05-10T05:53:44;100839.81;;;19.38;67.62
77161;BME280;66135;0.000;0.000;2023-05-10T05:56:10;100842.72;;;19.37;67.95
77161;BME280;66135;0.000;0.000;2023-05-10T05:58:35;100847.97;;;19.38;67.93
77161;BME280;66135;0.000;0.000;2023-05-10T06:01:01;100847.97;;;19.38;67.95
77161;BME280;66135;0.000;0.000;2023-05-10T06:03:26;100845.06;;;19.40;67.80
77161;BME280;66135;0.000;0.000;2023-05-10T06:05:51;100851.50;;;19.39;67.93
77161;BME280;66135;0.000;0.000;2023-05-10T06:08:17;100863.06;;;19.41;67.83
77161;BME280;66135;0.000;0.000;2023-05-10T06:10:42;100856.94;;;19.39;67.98
77161;BME280;66135;0.000;0.000;2023-05-10T06:13:08;100873.25;;;19.39;68.02
77161;BME280;66135;0.000;0.000;2023-05-10T06:15:33;100870.72;;;19.37;67.94
77161;BME280;66135;0.000;0.000;2023-05-10T06:17:59;100869.03;;;19.36;67.98
77161;BME280;66135;0.000;0.000;2023-05-10T06:20:25;100871.56;;;19.38;67.92
77161;BME280;66135;0.000;0.000;2023-05-10T06:22:50;100877.00;;;19.38;68.01
77161;BME280;66135;0.000;0.000;2023-05-10T06:25:16;100876.34;;;19.36;67.88
77161;BME280;66135;0.000;0.000;2023-05-10T06:27:43;100878.22;;;19.35;68.14
77161;BME280;66135;0.000;0.000;2023-05-10T06:30:09;100876.16;;;19.37;68.63
77161;BME280;66135;0.000;0.000;2023-05-10T06:32:34;100879.06;;;19.36;68.00
77161;BME280;66135;0.000;0.000;2023-05-10T06:35:00;100885.53;;;19.35;68.22
77161;BME280;66135;0.000;0.000;2023-05-10T06:37:25;100884.69;;;19.34;68.32
77161;BME280;66135;0.000;0.000;2023-05-10T06:39:50;100879.25;;;19.34;68.09
77161;BME280;66135;0.000;0.000;2023-05-10T06:42:16;100886.53;;;19.34;68.20
77161;BME280;66135;0.000;0.000;2023-05-10T06:44:41;100883.19;;;19.32;68.02
77161;BME280;66135;0.000;0.000;2023-05-10T06:47:07;100885.03;;;19.31;68.22
77161;BME280;66135;0.000;0.000;2023-05-10T06:49:32;100882.16;;;19.33;68.30
77161;BME280;66135;0.000;0.000;2023-05-10T06:51:57;100892.16;;;19.32;67.87
77161;BME280;66135;0.000;0.000;2023-05-10T06:54:23;100890.09;;;19.34;68.09
77161;BME280;66135;0.000;0.000;2023-05-10T06:56:48;100897.06;;;19.37;68.24
77161;BME280;66135;0.000;0.000;2023-05-10T06:59:14;100899.78;;;19.37;68.15
77161;BME280;66135;0.000;0.000;2023-05-10T07:01:40;100889.91;;;19.36;68.13
77161;BME280;66135;0.000;0.000;2023-05-10T07:04:05;100888.25;;;19.35;67.98
77161;BME280;66135;0.000;0.000;2023-05-10T07:06:32;100892.81;;;19.34;68.10
77161;BME280;66135;0.000;0.000;2023-05-10T07:08:58;100901.81;;;19.35;68.19
77161;BME280;66135;0.000;0.000;2023-05-10T07:11:24;100892.81;;;19.34;68.09
77161;BME280;66135;0.000;0.000;2023-05-10T07:13:49;100906.59;;;19.33;68.09
77161;BME280;66135;0.000;0.000;2023-05-10T07:16:15;100896.75;;;19.32;68.20
77161;BME280;66135;0.000;0.000;2023-05-10T07:18:40;100910.34;;;19.32;68.21
77161;BME280;66135;0.000;0.000;2023-05-10T07:21:05;100909.50;;;19.31;68.09
77161;BME280;66135;0.000;0.000;2023-05-10T07:23:31;100923.22;;;19.30;68.18
77161;BME280;66135;0.000;0.000;2023-05-10T07:25:56;100926.94;;;19.29;68.16
77161;BME280;66135;0.000;0.000;2023-05-10T07:28:23;100926.78;;;19.30;68.13
77161;BME280;66135;0.000;0.000;2023-05-10T07:30:49;100921.50;;;19.29;68.14
77161;BME280;66135;0.000;0.000;2023-05-10T07:33:14;100923.41;;;19.28;68.31
77161;BME280;66135;0.000;0.000;2023-05-10T07:35:41;100915.25;;;19.28;68.06
77161;BME280;66135;0.000;0.000;2023-05-10T07:38:06;100920.50;;;19.30;68.23
77161;BME280;66135;0.000;0.000;2023-05-10T07:40:32;100918.66;;;19.30;68.06
77161;BME280;66135;0.000;0.000;2023-05-10T07:42:58;100926.78;;;19.30;68.05
77161;BME280;66135;0.000;0.000;2023-05-10T07:45:23;100925.09;;;19.29;68.19
77161;BME280;66135;0.000;0.000;2023-05-10T07:47:49;100926.78;;;19.30;68.29
77161;BME280;66135;0.000;0.000;2023-05-10T07:50:15;100936.81;;;19.30;68.19
77161;BME280;66135;0.000;0.000;2023-05-10T07:52:40;100941.22;;;19.31;68.25
77161;BME280;66135;0.000;0.000;2023-05-10T07:55:06;100949.53;;;19.29;68.13
77161;BME280;66135;0.000;0.000;2023-05-10T07:57:33;100947.84;;;19.28;68.13
77161;BME280;66135;0.000;0.000;2023-05-10T07:59:58;100945.28;;;19.27;68.12
77161;BME280;66135;0.000;0.000;2023-05-10T08:02:24;100950.72;;;19.27;68.28
77161;BME280;66135;0.000;0.000;2023-05-10T08:04:49;100950.91;;;19.25;68.18
77161;BME280;66135;0.000;0.000;2023-05-10T08:07:14;100956.16;;;19.27;68.31
77161;BME280;66135;0.000;0.000;2023-05-10T08:09:40;100966.38;;;19.25;68.46
77161;BME280;66135;0.000;0.000;2023-05-10T08:12:06;100963.66;;;19.25;68.43
77161;BME280;66135;0.000;0.000;2023-05-10T08:14:31;100968.25;;;19.24;68.36
77161;BME280;66135;0.000;0.000;2023-05-10T08:16:56;100970.09;;;19.24;68.50
77161;BME280;66135;0.000;0.000;2023-05-10T08:19:22;100979.28;;;19.23;67.93
77161;BME280;66135;0.000;0.000;2023-05-10T08:21:48;100972.81;;;19.24;68.13
77161;BME280;66135;0.000;0.000;2023-05-10T08:24:13;100983.00;;;19.22;67.84
77161;BME280;66135;0.000;0.000;2023-05-10T08:26:39;100978.63;;;19.21;67.74
77161;BME280;66135;0.000;0.000;2023-05-10T08:29:04;100983.00;;;19.22;67.96
77161;BME280;66135;0.000;0.000;2023-05-10T08:31:30;100976.56;;;19.23;68.09
77161;BME280;66135;0.000;0.000;2023-05-10T08:33:55;100981.16;;;19.22;67.94
77161;BME280;66135;0.000;0.000;2023-05-10T08:36:21;100978.63;;;19.21;67.99
77161;BME280;66135;0.000;0.000;2023-05-10T08:38:52;100988.63;;;19.20;67.87
77161;BME280;66135;0.000;0.000;2023-05-10T08:41:26;100988.44;;;19.22;68.12
77161;BME280;66135;0.000;0.000;2023-05-10T08:43:53;100984.06;;;19.21;67.99
77161;BME280;66135;0.000;0.000;2023-05-10T08:46:21;100984.91;;;19.21;67.98
77161;BME280;66135;0.000;0.000;2023-05-10T08:48:48;100988.44;;;19.22;68.00
77161;BME280;66135;0.000;0.000;2023-05-10T08:51:17;100985.72;;;19.22;68.01
77161;BME280;66135;0.000;0.000;2023-05-10T08:53:44;100989.28;;;19.22;68.00
77161;BME280;66135;0.000;0.000;2023-05-10T08:56:09;100991.34;;;19.20;68.17
77161;BME280;66135;0.000;0.000;2023-05-10T08:58:35;100992.00;;;19.22;68.02
77161;BME280;66135;0.000;0.000;2023-05-10T09:01:02;100999.50;;;19.20;68.07
77161;BME280;66135;0.000;0.000;2023-05-10T09:03:28;100999.50;;;19.20;68.30
77161;BME280;66135;0.000;0.000;2023-05-10T09:05:53;100996.97;;;19.19;68.11
77161;BME280;66135;0.000;0.000;2023-05-10T09:08:25;100999.50;;;19.20;68.11
77161;BME280;66135;0.000;0.000;2023-05-10T09:11:08;101009.16;;;19.23;68.23
77161;BME280;66135;0.000;0.000;2023-05-10T09:13:35;101003.72;;;19.23;68.34
77161;BME280;66135;0.000;0.000;2023-05-10T09:16:01;101006.25;;;19.24;67.94
77161;BME280;66135;0.000;0.000;2023-05-10T09:18:27;101008.31;;;19.22;68.18
77161;BME280;66135;0.000;0.000;2023-05-10T09:20:53;101006.44;;;19.23;68.22
77161;BME280;66135;0.000;0.000;2023-05-10T09:23:19;101011.03;;;19.22;68.23
77161;BME280;66135;0.000;0.000;2023-05-10T09:25:45;101005.59;;;19.22;68.16
77161;BME280;66135;0.000;0.000;2023-05-10T09:28:11;101004.56;;;19.23;68.16
77161;BME280;66135;0.000;0.000;2023-05-10T09:30:37;101003.72;;;19.23;68.29
77161;BME280;66135;0.000;0.000;2023-05-10T09:33:02;101011.03;;;19.22;68.35
77161;BME280;66135;0.000;0.000;2023-05-10T09:35:32;101010.84;;;19.24;68.36
77161;BME280;66135;0.000;0.000;2023-05-10T09:38:02;101012.56;;;19.25;68.32
77161;BME280;66135;0.000;0.000;2023-05-10T09:40:32;101004.56;;;19.23;68.35
77161;BME280;66135;0.000;0.000;2023-05-10T09:43:07;101007.13;;;19.25;68.21
77161;BME280;66135;0.000;0.000;2023-05-10T09:45:35;101012.56;;;19.25;68.35
77161;BME280;66135;0.000;0.000;2023-05-10T09:48:02;101027.31;;;19.22;68.32
77161;BME280;66135;0.000;0.000;2023-05-10T09:50:28;101031.22;;;19.20;68.36
77161;BME280;66135;0.000;0.000;2023-05-10T09:53:02;101029.38;;;19.20;68.64
77161;BME280;66135;0.000;0.000;2023-05-10T09:55:45;101022.06;;;19.21;68.60
77161;BME280;66135;0.000;0.000;2023-05-10T09:58:11;101020.03;;;19.23;68.38
77161;BME280;66135;0.000;0.000;2023-05-10T10:00:39;101024.44;;;19.24;68.43
77161;BME280;66135;0.000;0.000;2023-05-10T10:03:05;101020.03;;;19.23;68.49
77161;BME280;66135;0.000;0.000;2023-05-10T10:05:33;101016.28;;;19.24;68.31
77161;BME280;66135;0.000;0.000;2023-05-10T10:08:00;101025.28;;;19.24;68.58
77161;BME280;66135;0.000;0.000;2023-05-10T10:10:26;101023.56;;;19.23;68.45
77161;BME280;66135;0.000;0.000;2023-05-10T10:12:53;101015.28;;;19.25;68.48
77161;BME280;66135;0.000;0.000;2023-05-10T10:15:20;101021.88;;;19.22;68.79
77161;BME280;66135;0.000;0.000;2023-05-10T10:17:46;101020.84;;;19.23;68.64
77161;BME280;66135;0.000;0.000;2023-05-10T10:20:13;101025.94;;;19.26;68.38
77161;BME280;66135;0.000;0.000;2023-05-10T10:22:39;101020.16;;;19.29;68.21
77161;BME280;66135;0.000;0.000;2023-05-10T10:25:05;101015.56;;;19.30;68.19
77161;BME280;66135;0.000;0.000;2023-05-10T10:27:48;101017.28;;;19.31;68.36
77161;BME280;66135;0.000;0.000;2023-05-10T10:30:40;101017.63;;;19.28;68.78
77161;BME280;66135;0.000;0.000;2023-05-10T10:35:47;101022.38;;;19.26;68.62
77161;BME280;66135;0.000;0.000;2023-05-10T10:38:13;101027.81;;;19.26;68.71
77161;BME280;66135;0.000;0.000;2023-05-10T10:40:38;101025.28;;;19.24;68.66
77161;BME280;66135;0.000;0.000;2023-05-10T10:43:25;101010.84;;;19.24;68.69
77161;BME280;66135;0.000;0.000;2023-05-10T10:46:09;101024.44;;;19.24;68.57
77161;BME280;66135;0.000;0.000;2023-05-10T10:49:08;101015.41;;;19.23;68.47
77161;BME280;66135;0.000;0.000;2023-05-10T10:54:41;101024.59;;;19.22;68.60
77161;BME280;66135;0.000;0.000;2023-05-10T10:57:11;101026.28;;;19.23;68.49
77161;BME280;66135;0.000;0.000;2023-05-10T10:59:42;101025.47;;;19.23;68.04
77161;BME280;66135;0.000;0.000;2023-05-10T11:02:09;101024.59;;;19.22;68.21
77161;BME280;66135;0.000;0.000;2023-05-10T11:04:43;101031.91;;;19.22;68.25
77161;BME280;66135;0.000;0.000;2023-05-10T11:07:18;101024.59;;;19.22;68.08
77161;BME280;66135;0.000;0.000;2023-05-10T11:09:46;101026.47;;;19.22;68.01
77161;BME280;66135;0.000;0.000;2023-05-10T11:12:12;101025.66;;;19.21;68.31
77161;BME280;66135;0.000;0.000;2023-05-10T11:14:37;101036.50;;;19.21;68.20
77161;BME280;66135;0.000;0.000;2023-05-10T11:17:22;101031.06;;;19.21;67.92
77161;BME280;66135;0.000;0.000;2023-05-10T11:20:08;101039.03;;;19.23;67.86
77161;BME280;66135;0.000;0.000;2023-05-10T11:22:51;101034.28;;;19.25;67.81
77161;BME280;66135;0.000;0.000;2023-05-10T11:25:26;101035.28;;;19.24;67.86
77161;BME280;66135;0.000;0.000;2023-05-10T11:27:51;101041.41;;;19.26;67.89
77161;BME280;66135;0.000;0.000;2023-05-10T11:30:17;101033.25;;;19.26;67.98
77161;BME280;66135;0.000;0.000;2023-05-10T11:32:43;101030.53;;;19.26;68.01
77161;BME280;66135;0.000;0.000;2023-05-10T11:35:10;101026.97;;;19.25;67.91
77161;BME280;66135;0.000;0.000;2023-05-10T11:37:37;101027.44;;;19.29;67.87
77161;BME280;66135;0.000;0.000;2023-05-10T11:40:07;101031.38;;;19.26;67.90
77161;BME280;66135;0.000;0.000;2023-05-10T11:42:37;101029.34;;;19.28;67.91
77161;BME280;66135;0.000;0.000;2023-05-10T11:45:02;101032.72;;;19.30;67.83
77161;BME280;66135;0.000;0.000;2023-05-10T11:47:28;101022.53;;;19.32;67.58
77161;BME280;66135;0.000;0.000;2023-05-10T11:49:53;101038.84;;;19.32;67.76
77161;BME280;66135;0.000;0.000;2023-05-10T11:52:19;101034.25;;;19.33;67.88
77161;BME280;66135;0.000;0.000;2023-05-10T11:54:50;101039.69;;;19.33;68.13
77161;BME280;66135;0.000;0.000;2023-05-10T11:57:18;101039.50;;;19.34;68.17
77161;BME280;66135;0.000;0.000;2023-05-10T11:59:44;101035.94;;;19.34;68.01
77161;BME280;66135;0.000;0.000;2023-05-10T12:02:10;101033.91;;;19.36;67.91
77161;BME280;66135;0.000;0.000;2023-05-10T12:04:35;101037.66;;;19.35;68.10
77161;BME280;66135;0.000;0.000;2023-05-10T12:07:01;101036.63;;;19.36;67.85
77161;BME280;66135;0.000;0.000;2023-05-10T12:09:27;101040.19;;;19.36;67.76
77161;BME280;66135;0.000;0.000;2023-05-10T12:11:54;101040.84;;;19.38;68.05
77161;BME280;66135;0.000;0.000;2023-05-10T12:14:21;101031.84;;;19.38;67.78
77161;BME280;66135;0.000;0.000;2023-05-10T12:16:47;101048.16;;;19.38;68.01
77161;BME280;66135;0.000;0.000;2023-05-10T12:19:18;101054.44;;;19.38;68.17
77161;BME280;66135;0.000;0.000;2023-05-10T12:21:44;101050.88;;;19.38;68.08
77161;BME280;66135;0.000;0.000;2023-05-10T12:24:10;101053.59;;;19.38;68.15
77161;BME280;66135;0.000;0.000;2023-05-10T12:26:36;101055.44;;;19.37;68.15
77161;BME280;66135;0.000;0.000;2023-05-10T12:29:14;101063.41;;;19.39;68.21
77161;BME280;66135;0.000;0.000;2023-05-10T12:31:58;101056.13;;;19.39;68.37
77161;BME280;66135;0.000;0.000;2023-05-10T12:34:35;101059.03;;;19.38;68.24
77161;BME280;66135;0.000;0.000;2023-05-10T12:37:02;101062.41;;;19.40;68.42
77161;BME280;66135;0.000;0.000;2023-05-10T12:39:41;101067.16;;;19.38;68.36
77161;BME280;66135;0.000;0.000;2023-05-10T12:42:06;101066.31;;;19.37;68.60
77161;BME280;66135;0.000;0.000;2023-05-10T12:44:32;101068.22;;;19.37;68.61
77161;BME280;66135;0.000;0.000;2023-05-10T12:46:57;101062.78;;;19.37;68.77
77161;BME280;66135;0.000;0.000;2023-05-10T12:49:22;101067.34;;;19.36;68.71
77161;BME280;66135;0.000;0.000;2023-05-10T12:51:48;101068.38;;;19.35;68.71
77161;BME280;66135;0.000;0.000;2023-05-10T12:54:13;101080.75;;;19.38;68.66
77161;BME280;66135;0.000;0.000;2023-05-10T12:56:39;101079.91;;;19.37;68.46
77161;BME280;66135;0.000;0.000;2023-05-10T12:59:06;101078.22;;;19.36;68.57
77161;BME280;66135;0.000;0.000;2023-05-10T13:01:31;101076.53;;;19.35;68.46
77161;BME280;66135;0.000;0.000;2023-05-10T13:03:56;101079.25;;;19.35;68.47
77161;BME280;66135;0.000;0.000;2023-05-10T13:06:22;101077.53;;;19.34;68.00
77161;BME280;66135;0.000;0.000;2023-05-10T13:08:48;101089.44;;;19.33;67.49
77161;BME280;66135;0.000;0.000;2023-05-10T13:11:14;101080.25;;;19.34;67.07
77161;BME280;66135;0.000;0.000;2023-05-10T13:13:42;101082.31;;;19.32;67.32
77161;BME280;66135;0.000;0.000;2023-05-10T13:16:07;101084.00;;;19.33;66.81
77161;BME280;66135;0.000;0.000;2023-05-10T13:18:32;101084.84;;;19.34;66.40
77161;BME280;66135;0.000;0.000;2023-05-10T13:20:58;101086.72;;;19.33;65.98
77161;BME280;66135;0.000;0.000;2023-05-10T13:23:23;101093.34;;;19.31;65.50